sensor_id;sensor_type;location;lat;lon;timestamp;P1;durP1;ratioP1;P2;durP2;ratioP2
17261;SDS011;9873;52.236;21.002;2023-07-28T00:06:14;4.30;;;2.80;;
17261;SDS011;9873;52.236;21.002;2023-07-28T00:16:19;4.18;;;2.60;;
17261;SDS011;9873;52.236;21.002;2023-07-28T00:26:24;4.30;;;2.65;;
17261;SDS011;9873;52.236;21.002;2023-07-28T00:36:30;2.78;;;2.55;;
17261;SDS011;9873;52.236;21.002;2023-07-28T00:46:36;5.22;;;3.00;;
17261;SDS011;9873;52.236;21.002;2023-07-28T00:56:40;5.07;;;3.20;;
17261;SDS011;9873;52.236;21.002;2023-07-28T01:16:54;3.90;;;3.00;;
17261;SDS011;9873;52.236;21.002;2023-07-28T01:26:59;5.47;;;3.40;;
17261;SDS011;9873;52.236;21.002;2023-07-28T01:37:01;7.55;;;3.90;;
17261;SDS011;9873;52.236;21.002;2023-07-28T01:47:04;4.85;;;4.07;;
17261;SDS011;9873;52.236;21.002;2023-07-28T01:57:09;7.38;;;4.20;;
17261;SDS011;9873;52.236;21.002;2023-07-28T02:07:11;5.65;;;4.22;;
17261;SDS011;9873;52.236;21.002;2023-07-28T02:17:16;4.47;;;3.90;;
17261;SDS011;9873;52.236;21.002;2023-07-28T02:27:20;7.85;;;4.13;;
17261;SDS011;9873;52.236;21.002;2023-07-28T02:37:25;4.47;;;3.70;;
17261;SDS011;9873;52.236;21.002;2023-07-28T02:47:27;5.13;;;3.90;;
17261;SDS011;9873;52.236;21.002;2023-07-28T02:57:32;5.85;;;4.07;;
17261;SDS011;9873;52.236;21.002;2023-07-28T03:07:37;7.43;;;4.35;;
17261;SDS011;9873;52.236;21.002;2023-07-28T03:17:43;4.25;;;3.75;;
17261;SDS011;9873;52.236;21.002;2023-07-28T03:27:45;5.90;;;4.45;;
17261;SDS011;9873;52.236;21.002;2023-07-28T03:37:50;4.63;;;4.15;;
17261;SDS011;9873;52.236;21.002;2023-07-28T03:47:56;5.53;;;4.53;;
17261;SDS011;9873;52.236;21.002;2023-07-28T03:57:58;10.88;;;4.82;;
17261;SDS011;9873;52.236;21.002;2023-07-28T04:08:00;7.35;;;4.47;;
17261;SDS011;9873;52.236;21.002;2023-07-28T04:18:05;6.18;;;4.50;;
17261;SDS011;9873;52.236;21.002;2023-07-28T04:28:07;8.88;;;4.03;;
17261;SDS011;9873;52.236;21.002;2023-07-28T04:38:15;4.60;;;3.97;;
17261;SDS011;9873;52.236;21.002;2023-07-28T04:48:27;6.65;;;3.88;;
17261;SDS011;9873;52.236;21.002;2023-07-28T04:58:34;3.95;;;3.55;;
17261;SDS011;9873;52.236;21.002;2023-07-28T05:08:37;5.00;;;3.80;;
17261;SDS011;9873;52.236;21.002;2023-07-28T05:18:42;5.25;;;3.63;;
17261;SDS011;9873;52.236;21.002;2023-07-28T05:29:03;4.05;;;3.33;;
17261;SDS011;9873;52.236;21.002;2023-07-28T05:39:05;6.20;;;3.63;;
17261;SDS011;9873;52.236;21.002;2023-07-28T05:49:15;6.65;;;3.28;;
17261;SDS011;9873;52.236;21.002;2023-07-28T05:59:17;5.30;;;3.60;;
17261;SDS011;9873;52.236;21.002;2023-07-28T06:09:22;7.07;;;3.22;;
17261;SDS011;9873;52.236;21.002;2023-07-28T06:19:29;7.35;;;3.15;;
17261;SDS011;9873;52.236;21.002;2023-07-28T06:29:34;5.28;;;3.47;;
17261;SDS011;9873;52.236;21.002;2023-07-28T06:39:38;5.30;;;3.33;;
17261;SDS011;9873;52.236;21.002;2023-07-28T06:49:42;4.13;;;3.00;;
17261;SDS011;9873;52.236;21.002;2023-07-28T06:59:45;5.63;;;3.45;;
17261;SDS011;9873;52.236;21.002;2023-07-28T07:09:47;4.75;;;3.13;;
17261;SDS011;9873;52.236;21.002;2023-07-28T07:19:49;4.93;;;3.50;;
17261;SDS011;9873;52.236;21.002;2023-07-28T07:29:54;5.90;;;4.10;;
17261;SDS011;9873;52.236;21.002;2023-07-28T07:39:59;5.68;;;3.97;;
17261;SDS011;9873;52.236;21.002;2023-07-28T07:50:08;9.05;;;4.63;;
17261;SDS011;9873;52.236;21.002;2023-07-28T08:00:13;7.30;;;4.65;;
17261;SDS011;9873;52.236;21.002;2023-07-28T08:10:18;6.80;;;5.40;;
17261;SDS011;9873;52.236;21.002;2023-07-28T08:20:22;6.70;;;5.13;;
17261;SDS011;9873;52.236;21.002;2023-07-28T08:30:27;7.10;;;5.70;;
17261;SDS011;9873;52.236;21.002;2023-07-28T08:40:33;7.55;;;5.10;;
17261;SDS011;9873;52.236;21.002;2023-07-28T08:50:35;7.35;;;5.78;;
17261;SDS011;9873;52.236;21.002;2023-07-28T09:00:40;6.10;;;4.30;;
17261;SDS011;9873;52.236;21.002;2023-07-28T09:10:46;6.15;;;4.72;;
17261;SDS011;9873;52.236;21.002;2023-07-28T09:20:55;5.15;;;4.57;;
17261;SDS011;9873;52.236;21.002;2023-07-28T09:30:59;10.15;;;6.47;;
17261;SDS011;9873;52.236;21.002;2023-07-28T09:41:09;7.40;;;5.38;;
17261;SDS011;9873;52.236;21.002;2023-07-28T09:51:17;5.72;;;5.10;;
17261;SDS011;9873;52.236;21.002;2023-07-28T10:01:22;5.90;;;5.05;;
17261;SDS011;9873;52.236;21.002;2023-07-28T10:11:27;6.00;;;5.03;;
17261;SDS011;9873;52.236;21.002;2023-07-28T10:21:31;8.18;;;5.50;;
17261;SDS011;9873;52.236;21.002;2023-07-28T10:31:54;6.95;;;5.22;;
17261;SDS011;9873;52.236;21.002;2023-07-28T10:52:03;5.88;;;5.28;;
17261;SDS011;9873;52.236;21.002;2023-07-28T11:02:07;6.38;;;5.20;;
17261;SDS011;9873;52.236;21.002;2023-07-28T11:12:09;5.47;;;4.43;;
17261;SDS011;9873;52.236;21.002;2023-07-28T11:22:17;5.60;;;5.00;;
17261;SDS011;9873;52.236;21.002;2023-07-28T11:32:19;5.50;;;4.45;;
17261;SDS011;9873;52.236;21.002;2023-07-28T11:42:25;5.72;;;4.00;;
17261;SDS011;9873;52.236;21.002;2023-07-28T11:52:31;4.40;;;2.28;;
17261;SDS011;9873;52.236;21.002;2023-07-28T12:02:34;3.10;;;1.60;;
17261;SDS011;9873;52.236;21.002;2023-07-28T12:12:44;3.35;;;1.55;;
17261;SDS011;9873;52.236;21.002;2023-07-28T12:22:53;1.42;;;1.15;;
17261;SDS011;9873;52.236;21.002;2023-07-28T12:33:18;1.77;;;1.15;;
17261;SDS011;9873;52.236;21.002;2023-07-28T12:43:23;1.85;;;1.33;;
17261;SDS011;9873;52.236;21.002;2023-07-28T12:53:33;6.97;;;1.50;;
17261;SDS011;9873;52.236;21.002;2023-07-28T13:03:35;1.60;;;1.23;;
17261;SDS011;9873;52.236;21.002;2023-07-28T13:13:42;2.85;;;1.30;;
17261;SDS011;9873;52.236;21.002;2023-07-28T13:23:44;2.72;;;1.10;;
17261;SDS011;9873;52.236;21.002;2023-07-28T13:33:47;1.48;;;1.13;;
17261;SDS011;9873;52.236;21.002;2023-07-28T13:43:50;1.52;;;1.08;;
17261;SDS011;9873;52.236;21.002;2023-07-28T13:53:55;1.60;;;1.02;;
17261;SDS011;9873;52.236;21.002;2023-07-28T14:04:00;1.90;;;1.35;;
17261;SDS011;9873;52.236;21.002;2023-07-28T14:14:05;1.75;;;1.30;;
17261;SDS011;9873;52.236;21.002;2023-07-28T14:24:12;1.90;;;1.58;;
17261;SDS011;9873;52.236;21.002;2023-07-28T14:34:16;1.80;;;1.42;;
17261;SDS011;9873;52.236;21.002;2023-07-28T14:44:19;2.08;;;1.25;;
17261;SDS011;9873;52.236;21.002;2023-07-28T14:54:21;1.80;;;1.35;;
17261;SDS011;9873;52.236;21.002;2023-07-28T15:04:23;3.90;;;1.90;;
17261;SDS011;9873;52.236;21.002;2023-07-28T15:14:26;3.08;;;1.80;;
17261;SDS011;9873;52.236;21.002;2023-07-28T15:24:31;3.10;;;2.05;;
17261;SDS011;9873;52.236;21.002;2023-07-28T15:34:38;8.73;;;3.60;;
17261;SDS011;9873;52.236;21.002;2023-07-28T15:44:42;3.72;;;3.20;;
17261;SDS011;9873;52.236;21.002;2023-07-28T15:54:44;3.75;;;3.28;;
17261;SDS011;9873;52.236;21.002;2023-07-28T16:04:49;4.85;;;3.25;;
17261;SDS011;9873;52.236;21.002;2023-07-28T16:14:52;3.33;;;1.90;;
17261;SDS011;9873;52.236;21.002;2023-07-28T16:24:57;1.92;;;1.20;;
17261;SDS011;9873;52.236;21.002;2023-07-28T16:35:02;2.05;;;1.10;;
17261;SDS011;9873;52.236;21.002;2023-07-28T16:45:04;1.73;;;1.55;;
17261;SDS011;9873;52.236;21.002;2023-07-28T16:55:10;2.05;;;1.30;;
17261;SDS011;9873;52.236;21.002;2023-07-28T17:05:12;1.75;;;1.17;;
17261;SDS011;9873;52.236;21.002;2023-07-28T17:15:18;2.67;;;1.80;;
17261;SDS011;9873;52.236;21.002;2023-07-28T17:25:42;1.80;;;1.45;;
17261;SDS011;9873;52.236;21.002;2023-07-28T17:35:49;4.53;;;1.40;;
17261;SDS011;9873;52.236;21.002;2023-07-28T17:45:54;2.00;;;1.60;;
17261;SDS011;9873;52.236;21.002;2023-07-28T17:55:57;4.85;;;2.10;;
17261;SDS011;9873;52.236;21.002;2023-07-28T18:06:02;2.80;;;2.33;;
17261;SDS011;9873;52.236;21.002;2023-07-28T18:16:04;3.40;;;2.60;;
17261;SDS011;9873;52.236;21.002;2023-07-28T18:26:06;2.70;;;2.50;;
17261;SDS011;9873;52.236;21.002;2023-07-28T18:36:09;2.70;;;2.30;;
17261;SDS011;9873;52.236;21.002;2023-07-28T18:46:11;3.72;;;2.58;;
17261;SDS011;9873;52.236;21.002;2023-07-28T18:56:16;5.25;;;3.05;;
17261;SDS011;9873;52.236;21.002;2023-07-28T19:06:18;3.80;;;2.80;;
17261;SDS011;9873;52.236;21.002;2023-07-28T19:16:24;3.70;;;2.55;;
17261;SDS011;9873;52.236;21.002;2023-07-28T19:26:26;3.28;;;2.80;;
17261;SDS011;9873;52.236;21.002;2023-07-28T19:36:31;3.38;;;3.08;;
17261;SDS011;9873;52.236;21.002;2023-07-28T19:46:37;4.15;;;2.85;;
17261;SDS011;9873;52.236;21.002;2023-07-28T19:56:48;3.35;;;2.78;;
17261;SDS011;9873;52.236;21.002;2023-07-28T20:06:53;3.47;;;3.17;;
17261;SDS011;9873;52.236;21.002;2023-07-28T20:16:57;3.95;;;3.38;;
17261;SDS011;9873;52.236;21.002;2023-07-28T20:27:00;4.72;;;3.63;;
17261;SDS011;9873;52.236;21.002;2023-07-28T20:37:06;5.28;;;3.70;;
17261;SDS011;9873;52.236;21.002;2023-07-28T20:47:13;4.18;;;3.40;;
17261;SDS011;9873;52.236;21.002;2023-07-28T20:57:18;5.10;;;3.47;;
17261;SDS011;9873;52.236;21.002;2023-07-28T21:07:21;5.70;;;3.78;;
17261;SDS011;9873;52.236;21.002;2023-07-28T21:17:23;5.95;;;3.53;;
17261;SDS011;9873;52.236;21.002;2023-07-28T21:27:26;4.85;;;3.80;;
17261;SDS011;9873;52.236;21.002;2023-07-28T21:37:28;4.95;;;4.05;;
17261;SDS011;9873;52.236;21.002;2023-07-28T21:47:31;4.50;;;3.53;;
17261;SDS011;9873;52.236;21.002;2023-07-28T21:57:37;6.55;;;3.65;;
17261;SDS011;9873;52.236;21.002;2023-07-28T22:07:42;7.15;;;4.70;;
17261;SDS011;9873;52.236;21.002;2023-07-28T22:17:49;6.97;;;4.57;;
17261;SDS011;9873;52.236;21.002;2023-07-28T22:27:56;5.50;;;4.47;;
17261;SDS011;9873;52.236;21.002;2023-07-28T22:38:03;7.43;;;6.10;;
17261;SDS011;9873;52.236;21.002;2023-07-28T22:48:10;5.90;;;5.03;;
17261;SDS011;9873;52.236;21.002;2023-07-28T22:58:13;6.68;;;4.40;;
17261;SDS011;9873;52.236;21.002;2023-07-28T23:08:16;6.93;;;4.60;;
17261;SDS011;9873;52.236;21.002;2023-07-28T23:18:18;6.65;;;4.88;;
17261;SDS011;9873;52.236;21.002;2023-07-28T23:28:23;7.32;;;5.43;;
17261;SDS011;9873;52.236;21.002;2023-07-28T23:38:27;6.43;;;5.30;;
17261;SDS011;9873;52.236;21.002;2023-07-28T23:48:32;8.15;;;6.00;;
17261;SDS011;9873;52.236;21.002;2023-07-28T23:58:37;7.72;;;5.78;;
